sensor_id;sensor_type;location;lat;lon;timestamp;P1;durP1;ratioP1;P2;durP2;ratioP2
23434;SDS011;11890;45.380;11.028;2024-03-23T00:55:23;27.60;;;17.80;;
23434;SDS011;11890;45.380;11.028;2024-03-23T00:57:50;33.30;;;16.58;;
23434;SDS011;11890;45.380;11.028;2024-03-23T01:00:17;29.98;;;16.98;;
23434;SDS011;11890;45.380;11.028;2024-03-23T01:02:43;31.55;;;18.45;;
23434;SDS011;11890;45.380;11.028;2024-03-23T01:05:10;28.85;;;17.13;;
23434;SDS011;11890;45.380;11.028;2024-03-23T01:07:37;31.80;;;16.50;;
23434;SDS011;11890;45.380;11.028;2024-03-23T01:10:04;27.40;;;16.38;;
23434;SDS011;11890;45.380;11.028;2024-03-23T01:12:31;35.00;;;18.52;;
23434;SDS011;11890;45.380;11.028;2024-03-23T01:14:57;33.63;;;17.25;;
23434;SDS011;11890;45.380;11.028;2024-03-23T01:17:24;33.13;;;17.63;;
23434;SDS011;11890;45.380;11.028;2024-03-23T01:19:51;39.38;;;19.27;;
23434;SDS011;11890;45.380;11.028;2024-03-23T01:22:18;33.15;;;17.73;;
23434;SDS011;11890;45.380;11.028;2024-03-23T01:24:45;34.88;;;17.88;;
23434;SDS011;11890;45.380;11.028;2024-03-23T01:27:11;28.05;;;16.88;;
23434;SDS011;11890;45.380;11.028;2024-03-23T01:29:38;29.92;;;15.90;;
23434;SDS011;11890;45.380;11.028;2024-03-23T01:32:05;27.65;;;16.23;;
23434;SDS011;11890;45.380;11.028;2024-03-23T01:34:32;32.10;;;18.02;;
23434;SDS011;11890;45.380;11.028;2024-03-23T01:36:59;32.03;;;17.75;;
23434;SDS011;11890;45.380;11.028;2024-03-23T01:39:26;30.20;;;16.58;;
23434;SDS011;11890;45.380;11.028;2024-03-23T01:41:53;29.95;;;16.10;;
23434;SDS011;11890;45.380;11.028;2024-03-23T01:44:20;33.30;;;16.30;;
23434;SDS011;11890;45.380;11.028;2024-03-23T01:46:46;28.98;;;16.38;;
23434;SDS011;11890;45.380;11.028;2024-03-23T01:49:14;29.98;;;17.98;;
23434;SDS011;11890;45.380;11.028;2024-03-23T01:51:41;30.83;;;17.45;;
23434;SDS011;11890;45.380;11.028;2024-03-23T01:54:07;32.00;;;16.58;;
23434;SDS011;11890;45.380;11.028;2024-03-23T01:56:35;29.73;;;17.60;;
23434;SDS011;11890;45.380;11.028;2024-03-23T01:59:02;31.13;;;17.13;;
23434;SDS011;11890;45.380;11.028;2024-03-23T02:01:29;28.00;;;16.00;;
23434;SDS011;11890;45.380;11.028;2024-03-23T02:03:56;29.25;;;16.73;;
23434;SDS011;11890;45.380;11.028;2024-03-23T02:06:24;24.98;;;15.82;;
23434;SDS011;11890;45.380;11.028;2024-03-23T02:08:51;29.30;;;16.13;;
23434;SDS011;11890;45.380;11.028;2024-03-23T02:11:18;28.15;;;16.80;;
23434;SDS011;11890;45.380;11.028;2024-03-23T02:13:44;30.15;;;16.33;;
23434;SDS011;11890;45.380;11.028;2024-03-23T02:16:11;25.92;;;15.57;;
23434;SDS011;11890;45.380;11.028;2024-03-23T02:18:39;29.02;;;16.17;;
23434;SDS011;11890;45.380;11.028;2024-03-23T02:21:06;33.53;;;18.02;;
23434;SDS011;11890;45.380;11.028;2024-03-23T02:23:32;29.65;;;16.08;;
23434;SDS011;11890;45.380;11.028;2024-03-23T02:25:59;24.80;;;14.85;;
23434;SDS011;11890;45.380;11.028;2024-03-23T02:28:26;24.10;;;14.77;;
23434;SDS011;11890;45.380;11.028;2024-03-23T02:30:53;28.25;;;14.93;;
23434;SDS011;11890;45.380;11.028;2024-03-23T02:33:19;26.80;;;15.57;;
23434;SDS011;11890;45.380;11.028;2024-03-23T02:35:46;25.40;;;16.13;;
23434;SDS011;11890;45.380;11.028;2024-03-23T02:38:13;32.08;;;18.02;;
23434;SDS011;11890;45.380;11.028;2024-03-23T02:40:40;26.65;;;16.08;;
23434;SDS011;11890;45.380;11.028;2024-03-23T02:43:07;32.03;;;16.90;;
23434;SDS011;11890;45.380;11.028;2024-03-23T02:45:34;26.83;;;16.42;;
23434;SDS011;11890;45.380;11.028;2024-03-23T02:48:00;26.52;;;16.42;;
23434;SDS011;11890;45.380;11.028;2024-03-23T02:50:27;24.33;;;14.15;;
23434;SDS011;11890;45.380;11.028;2024-03-23T02:52:54;27.85;;;16.20;;
23434;SDS011;11890;45.380;11.028;2024-03-23T02:55:21;26.33;;;14.32;;
23434;SDS011;11890;45.380;11.028;2024-03-23T02:57:48;24.02;;;14.68;;
23434;SDS011;11890;45.380;11.028;2024-03-23T03:00:15;28.15;;;16.38;;
23434;SDS011;11890;45.380;11.028;2024-03-23T03:02:41;31.60;;;17.38;;
23434;SDS011;11890;45.380;11.028;2024-03-23T03:05:08;27.33;;;15.68;;
23434;SDS011;11890;45.380;11.028;2024-03-23T03:07:35;26.42;;;16.08;;
23434;SDS011;11890;45.380;11.028;2024-03-23T03:10:04;26.58;;;15.73;;
23434;SDS011;11890;45.380;11.028;2024-03-23T03:12:33;28.83;;;15.73;;
23434;SDS011;11890;45.380;11.028;2024-03-23T03:15:00;25.35;;;16.25;;
23434;SDS011;11890;45.380;11.028;2024-03-23T03:17:27;28.92;;;16.88;;
23434;SDS011;11890;45.380;11.028;2024-03-23T03:19:53;27.50;;;17.45;;
23434;SDS011;11890;45.380;11.028;2024-03-23T03:22:24;33.08;;;17.52;;
23434;SDS011;11890;45.380;11.028;2024-03-23T03:24:51;27.63;;;16.95;;
23434;SDS011;11890;45.380;11.028;2024-03-23T03:27:18;34.45;;;17.77;;
23434;SDS011;11890;45.380;11.028;2024-03-23T03:29:46;28.60;;;16.75;;
23434;SDS011;11890;45.380;11.028;2024-03-23T03:32:12;25.15;;;15.35;;
23434;SDS011;11890;45.380;11.028;2024-03-23T03:34:39;33.22;;;16.00;;
23434;SDS011;11890;45.380;11.028;2024-03-23T03:37:06;22.33;;;14.23;;
23434;SDS011;11890;45.380;11.028;2024-03-23T03:39:33;23.33;;;14.65;;
23434;SDS011;11890;45.380;11.028;2024-03-23T03:41:59;27.83;;;15.38;;
23434;SDS011;11890;45.380;11.028;2024-03-23T03:44:27;29.58;;;16.40;;
23434;SDS011;11890;45.380;11.028;2024-03-23T03:46:54;26.63;;;16.20;;
23434;SDS011;11890;45.380;11.028;2024-03-23T03:49:21;31.50;;;17.42;;
23434;SDS011;11890;45.380;11.028;2024-03-23T03:51:48;30.88;;;17.27;;
23434;SDS011;11890;45.380;11.028;2024-03-23T03:54:19;28.75;;;15.70;;
23434;SDS011;11890;45.380;11.028;2024-03-23T03:56:46;31.40;;;16.52;;
23434;SDS011;11890;45.380;11.028;2024-03-23T03:59:13;31.08;;;17.25;;
23434;SDS011;11890;45.380;11.028;2024-03-23T04:01:40;28.75;;;16.25;;
23434;SDS011;11890;45.380;11.028;2024-03-23T04:04:07;28.63;;;16.35;;
23434;SDS011;11890;45.380;11.028;2024-03-23T04:06:33;29.70;;;15.93;;
23434;SDS011;11890;45.380;11.028;2024-03-23T04:09:01;29.48;;;16.23;;
23434;SDS011;11890;45.380;11.028;2024-03-23T04:11:28;28.60;;;16.58;;
23434;SDS011;11890;45.380;11.028;2024-03-23T04:13:54;30.60;;;17.58;;
23434;SDS011;11890;45.380;11.028;2024-03-23T04:16:26;27.92;;;16.15;;
23434;SDS011;11890;45.380;11.028;2024-03-23T04:18:52;26.60;;;17.13;;
23434;SDS011;11890;45.380;11.028;2024-03-23T04:21:20;27.35;;;16.33;;
23434;SDS011;11890;45.380;11.028;2024-03-23T04:23:47;28.08;;;16.80;;
23434;SDS011;11890;45.380;11.028;2024-03-23T04:26:14;24.35;;;15.35;;
23434;SDS011;11890;45.380;11.028;2024-03-23T04:28:41;27.13;;;16.88;;
23434;SDS011;11890;45.380;11.028;2024-03-23T04:31:09;26.23;;;15.88;;
23434;SDS011;11890;45.380;11.028;2024-03-23T04:33:36;27.20;;;15.85;;
23434;SDS011;11890;45.380;11.028;2024-03-23T04:36:02;25.65;;;15.50;;
23434;SDS011;11890;45.380;11.028;2024-03-23T04:38:29;27.00;;;16.17;;
23434;SDS011;11890;45.380;11.028;2024-03-23T04:40:56;26.92;;;15.75;;
23434;SDS011;11890;45.380;11.028;2024-03-23T04:43:24;27.00;;;16.23;;
23434;SDS011;11890;45.380;11.028;2024-03-23T04:45:52;25.55;;;16.25;;
23434;SDS011;11890;45.380;11.028;2024-03-23T04:48:22;27.63;;;15.85;;
23434;SDS011;11890;45.380;11.028;2024-03-23T04:50:49;31.33;;;17.13;;
23434;SDS011;11890;45.380;11.028;2024-03-23T04:53:16;28.58;;;16.23;;
23434;SDS011;11890;45.380;11.028;2024-03-23T04:55:43;24.08;;;15.63;;
23434;SDS011;11890;45.380;11.028;2024-03-23T04:58:10;29.10;;;15.93;;
23434;SDS011;11890;45.380;11.028;2024-03-23T05:00:37;28.00;;;15.85;;
23434;SDS011;11890;45.380;11.028;2024-03-23T05:03:03;25.30;;;15.48;;
23434;SDS011;11890;45.380;11.028;2024-03-23T05:05:33;24.33;;;14.73;;
23434;SDS011;11890;45.380;11.028;2024-03-23T05:07:59;30.23;;;16.92;;
23434;SDS011;11890;45.380;11.028;2024-03-23T05:10:26;28.38;;;15.55;;
23434;SDS011;11890;45.380;11.028;2024-03-23T05:12:53;28.45;;;16.63;;
23434;SDS011;11890;45.380;11.028;2024-03-23T05:15:20;28.83;;;16.10;;
23434;SDS011;11890;45.380;11.028;2024-03-23T05:17:47;28.17;;;15.18;;
23434;SDS011;11890;45.380;11.028;2024-03-23T05:20:13;36.00;;;16.92;;
23434;SDS011;11890;45.380;11.028;2024-03-23T05:22:40;28.23;;;15.90;;
23434;SDS011;11890;45.380;11.028;2024-03-23T05:25:07;29.95;;;15.45;;
23434;SDS011;11890;45.380;11.028;2024-03-23T05:27:35;28.02;;;14.75;;
23434;SDS011;11890;45.380;11.028;2024-03-23T05:30:02;24.67;;;14.68;;
23434;SDS011;11890;45.380;11.028;2024-03-23T05:32:29;26.25;;;15.68;;
23434;SDS011;11890;45.380;11.028;2024-03-23T05:34:56;30.73;;;17.40;;
23434;SDS011;11890;45.380;11.028;2024-03-23T05:37:23;29.23;;;15.70;;
23434;SDS011;11890;45.380;11.028;2024-03-23T05:39:50;29.15;;;15.48;;
23434;SDS011;11890;45.380;11.028;2024-03-23T05:42:17;32.70;;;18.25;;
23434;SDS011;11890;45.380;11.028;2024-03-23T05:44:44;28.83;;;17.35;;
23434;SDS011;11890;45.380;11.028;2024-03-23T05:47:11;30.23;;;16.95;;
23434;SDS011;11890;45.380;11.028;2024-03-23T05:49:42;25.13;;;16.02;;
23434;SDS011;11890;45.380;11.028;2024-03-23T05:52:09;30.42;;;17.08;;
23434;SDS011;11890;45.380;11.028;2024-03-23T05:54:36;29.30;;;16.35;;
23434;SDS011;11890;45.380;11.028;2024-03-23T05:57:03;31.65;;;17.75;;
23434;SDS011;11890;45.380;11.028;2024-03-23T05:59:30;29.45;;;16.27;;
23434;SDS011;11890;45.380;11.028;2024-03-23T06:01:56;28.27;;;16.65;;
23434;SDS011;11890;45.380;11.028;2024-03-23T06:04:23;30.85;;;17.35;;
23434;SDS011;11890;45.380;11.028;2024-03-23T06:06:51;32.40;;;17.38;;
23434;SDS011;11890;45.380;11.028;2024-03-23T06:09:20;29.30;;;16.25;;
23434;SDS011;11890;45.380;11.028;2024-03-23T06:11:48;31.20;;;16.98;;
23434;SDS011;11890;45.380;11.028;2024-03-23T06:14:15;26.75;;;17.50;;
23434;SDS011;11890;45.380;11.028;2024-03-23T06:16:41;32.03;;;17.95;;
23434;SDS011;11890;45.380;11.028;2024-03-23T06:19:08;28.67;;;17.35;;
23434;SDS011;11890;45.380;11.028;2024-03-23T06:21:35;31.13;;;17.95;;
23434;SDS011;11890;45.380;11.028;2024-03-23T06:24:02;30.13;;;18.05;;
23434;SDS011;11890;45.380;11.028;2024-03-23T06:26:31;28.40;;;17.67;;
23434;SDS011;11890;45.380;11.028;2024-03-23T06:29:00;30.60;;;18.95;;
23434;SDS011;11890;45.380;11.028;2024-03-23T06:31:27;35.67;;;18.42;;
23434;SDS011;11890;45.380;11.028;2024-03-23T06:33:55;31.05;;;18.05;;
23434;SDS011;11890;45.380;11.028;2024-03-23T06:36:21;32.95;;;18.85;;
23434;SDS011;11890;45.380;11.028;2024-03-23T06:38:48;33.13;;;18.73;;
23434;SDS011;11890;45.380;11.028;2024-03-23T06:41:15;35.92;;;17.58;;
23434;SDS011;11890;45.380;11.028;2024-03-23T06:43:42;31.90;;;18.73;;
23434;SDS011;11890;45.380;11.028;2024-03-23T06:46:09;30.83;;;18.05;;
23434;SDS011;11890;45.380;11.028;2024-03-23T06:48:36;28.15;;;18.10;;
23434;SDS011;11890;45.380;11.028;2024-03-23T06:51:03;32.58;;;17.98;;
23434;SDS011;11890;45.380;11.028;2024-03-23T06:53:30;30.85;;;18.25;;
23434;SDS011;11890;45.380;11.028;2024-03-23T06:55:56;28.05;;;17.38;;
23434;SDS011;11890;45.380;11.028;2024-03-23T06:58:24;32.72;;;17.60;;
23434;SDS011;11890;45.380;11.028;2024-03-23T07:00:51;28.52;;;17.67;;
23434;SDS011;11890;45.380;11.028;2024-03-23T07:03:18;29.42;;;16.65;;
23434;SDS011;11890;45.380;11.028;2024-03-23T07:05:44;29.70;;;17.52;;
23434;SDS011;11890;45.380;11.028;2024-03-23T07:08:12;30.75;;;18.30;;
23434;SDS011;11890;45.380;11.028;2024-03-23T07:10:39;36.40;;;17.92;;
23434;SDS011;11890;45.380;11.028;2024-03-23T07:13:06;32.50;;;17.65;;
23434;SDS011;11890;45.380;11.028;2024-03-23T07:15:33;36.55;;;22.95;;
23434;SDS011;11890;45.380;11.028;2024-03-23T07:18:00;38.92;;;24.42;;
23434;SDS011;11890;45.380;11.028;2024-03-23T07:20:26;36.72;;;22.65;;
23434;SDS011;11890;45.380;11.028;2024-03-23T07:22:55;47.47;;;26.83;;
23434;SDS011;11890;45.380;11.028;2024-03-23T07:25:21;44.88;;;24.83;;
23434;SDS011;11890;45.380;11.028;2024-03-23T07:27:49;41.17;;;24.15;;
23434;SDS011;11890;45.380;11.028;2024-03-23T07:30:15;34.20;;;19.40;;
23434;SDS011;11890;45.380;11.028;2024-03-23T07:32:44;31.52;;;19.00;;
23434;SDS011;11890;45.380;11.028;2024-03-23T07:35:11;32.88;;;17.77;;
23434;SDS011;11890;45.380;11.028;2024-03-23T07:37:37;31.25;;;17.77;;
23434;SDS011;11890;45.380;11.028;2024-03-23T07:40:04;33.08;;;17.90;;
23434;SDS011;11890;45.380;11.028;2024-03-23T07:42:32;27.98;;;17.10;;
23434;SDS011;11890;45.380;11.028;2024-03-23T07:44:58;31.20;;;18.05;;
23434;SDS011;11890;45.380;11.028;2024-03-23T07:47:25;31.40;;;18.35;;
23434;SDS011;11890;45.380;11.028;2024-03-23T07:49:52;31.67;;;18.40;;
23434;SDS011;11890;45.380;11.028;2024-03-23T07:52:19;34.25;;;19.33;;
23434;SDS011;11890;45.380;11.028;2024-03-23T07:54:46;36.67;;;20.30;;
23434;SDS011;11890;45.380;11.028;2024-03-23T07:57:13;37.70;;;20.10;;
23434;SDS011;11890;45.380;11.028;2024-03-23T07:59:39;33.75;;;18.88;;
23434;SDS011;11890;45.380;11.028;2024-03-23T08:02:06;33.63;;;19.45;;
23434;SDS011;11890;45.380;11.028;2024-03-23T08:04:33;33.63;;;18.80;;
23434;SDS011;11890;45.380;11.028;2024-03-23T08:06:59;35.17;;;19.73;;
23434;SDS011;11890;45.380;11.028;2024-03-23T08:09:26;33.03;;;19.30;;
23434;SDS011;11890;45.380;11.028;2024-03-23T08:11:53;33.60;;;18.67;;
23434;SDS011;11890;45.380;11.028;2024-03-23T08:14:20;33.03;;;19.67;;
23434;SDS011;11890;45.380;11.028;2024-03-23T08:16:47;31.98;;;18.65;;
23434;SDS011;11890;45.380;11.028;2024-03-23T08:19:15;34.65;;;18.98;;
23434;SDS011;11890;45.380;11.028;2024-03-23T08:21:42;36.38;;;20.50;;
23434;SDS011;11890;45.380;11.028;2024-03-23T08:24:09;33.88;;;19.42;;
23434;SDS011;11890;45.380;11.028;2024-03-23T08:26:35;34.83;;;19.75;;
23434;SDS011;11890;45.380;11.028;2024-03-23T08:29:03;31.27;;;18.80;;
23434;SDS011;11890;45.380;11.028;2024-03-23T08:31:30;33.90;;;21.10;;
23434;SDS011;11890;45.380;11.028;2024-03-23T08:33:57;33.80;;;21.08;;
23434;SDS011;11890;45.380;11.028;2024-03-23T08:36:24;35.42;;;21.58;;
23434;SDS011;11890;45.380;11.028;2024-03-23T08:38:51;38.30;;;25.00;;
23434;SDS011;11890;45.380;11.028;2024-03-23T08:41:19;31.90;;;21.10;;
23434;SDS011;11890;45.380;11.028;2024-03-23T08:43:46;34.20;;;21.42;;
23434;SDS011;11890;45.380;11.028;2024-03-23T08:46:14;37.08;;;19.88;;
23434;SDS011;11890;45.380;11.028;2024-03-23T08:48:42;37.45;;;21.92;;
23434;SDS011;11890;45.380;11.028;2024-03-23T08:51:09;40.40;;;21.55;;
23434;SDS011;11890;45.380;11.028;2024-03-23T08:53:37;32.80;;;20.77;;
23434;SDS011;11890;45.380;11.028;2024-03-23T08:56:04;34.40;;;21.35;;
23434;SDS011;11890;45.380;11.028;2024-03-23T08:58:32;35.40;;;20.85;;
23434;SDS011;11890;45.380;11.028;2024-03-23T09:01:03;37.55;;;22.52;;
23434;SDS011;11890;45.380;11.028;2024-03-23T09:03:30;34.78;;;21.80;;
23434;SDS011;11890;45.380;11.028;2024-03-23T09:05:57;38.30;;;23.00;;
23434;SDS011;11890;45.380;11.028;2024-03-23T09:08:24;37.55;;;24.13;;
23434;SDS011;11890;45.380;11.028;2024-03-23T09:10:51;34.95;;;23.42;;
23434;SDS011;11890;45.380;11.028;2024-03-23T09:13:18;35.60;;;23.38;;
23434;SDS011;11890;45.380;11.028;2024-03-23T09:15:46;33.92;;;22.35;;
23434;SDS011;11890;45.380;11.028;2024-03-23T09:18:13;36.47;;;23.15;;
23434;SDS011;11890;45.380;11.028;2024-03-23T09:20:39;35.10;;;23.60;;
23434;SDS011;11890;45.380;11.028;2024-03-23T09:23:06;36.28;;;22.52;;
23434;SDS011;11890;45.380;11.028;2024-03-23T09:25:36;40.45;;;23.00;;
23434;SDS011;11890;45.380;11.028;2024-03-23T09:28:04;34.35;;;22.90;;
23434;SDS011;11890;45.380;11.028;2024-03-23T09:30:32;35.53;;;22.67;;
23434;SDS011;11890;45.380;11.028;2024-03-23T09:32:59;35.85;;;20.50;;
23434;SDS011;11890;45.380;11.028;2024-03-23T09:35:26;38.03;;;22.83;;
23434;SDS011;11890;45.380;11.028;2024-03-23T09:37:53;33.78;;;22.58;;
23434;SDS011;11890;45.380;11.028;2024-03-23T09:40:20;39.63;;;24.45;;
23434;SDS011;11890;45.380;11.028;2024-03-23T09:42:50;41.05;;;25.17;;
23434;SDS011;11890;45.380;11.028;2024-03-23T09:45:20;43.05;;;24.88;;
23434;SDS011;11890;45.380;11.028;2024-03-23T09:47:47;36.67;;;24.02;;
23434;SDS011;11890;45.380;11.028;2024-03-23T09:50:14;41.35;;;24.35;;
23434;SDS011;11890;45.380;11.028;2024-03-23T09:52:41;41.30;;;25.10;;
23434;SDS011;11890;45.380;11.028;2024-03-23T09:55:08;41.22;;;24.27;;
23434;SDS011;11890;45.380;11.028;2024-03-23T09:57:35;40.17;;;23.48;;
23434;SDS011;11890;45.380;11.028;2024-03-23T10:00:03;38.30;;;24.02;;
23434;SDS011;11890;45.380;11.028;2024-03-23T10:02:32;36.95;;;23.95;;
23434;SDS011;11890;45.380;11.028;2024-03-23T10:04:59;39.13;;;24.52;;
23434;SDS011;11890;45.380;11.028;2024-03-23T10:07:26;37.72;;;25.05;;
23434;SDS011;11890;45.380;11.028;2024-03-23T10:09:54;37.88;;;23.10;;
23434;SDS011;11890;45.380;11.028;2024-03-23T10:12:22;38.13;;;24.23;;
23434;SDS011;11890;45.380;11.028;2024-03-23T10:14:49;35.88;;;23.00;;
23434;SDS011;11890;45.380;11.028;2024-03-23T10:17:17;34.38;;;21.98;;
23434;SDS011;11890;45.380;11.028;2024-03-23T10:19:45;36.88;;;22.55;;
23434;SDS011;11890;45.380;11.028;2024-03-23T10:22:13;36.42;;;22.52;;
23434;SDS011;11890;45.380;11.028;2024-03-23T10:24:41;39.58;;;23.55;;
23434;SDS011;11890;45.380;11.028;2024-03-23T10:27:08;32.83;;;22.10;;
23434;SDS011;11890;45.380;11.028;2024-03-23T10:29:35;35.83;;;22.75;;
23434;SDS011;11890;45.380;11.028;2024-03-23T10:32:11;36.90;;;22.75;;
23434;SDS011;11890;45.380;11.028;2024-03-23T10:34:39;38.22;;;23.00;;
23434;SDS011;11890;45.380;11.028;2024-03-23T10:37:06;42.75;;;23.50;;
23434;SDS011;11890;45.380;11.028;2024-03-23T10:39:33;36.45;;;22.25;;
23434;SDS011;11890;45.380;11.028;2024-03-23T10:42:05;38.45;;;22.98;;
23434;SDS011;11890;45.380;11.028;2024-03-23T10:44:33;35.47;;;22.20;;
23434;SDS011;11890;45.380;11.028;2024-03-23T10:47:03;33.75;;;22.33;;
23434;SDS011;11890;45.380;11.028;2024-03-23T10:49:34;35.45;;;21.63;;
23434;SDS011;11890;45.380;11.028;2024-03-23T10:52:04;37.42;;;22.90;;
23434;SDS011;11890;45.380;11.028;2024-03-23T10:54:31;34.88;;;22.95;;
23434;SDS011;11890;45.380;11.028;2024-03-23T10:57:06;37.38;;;24.15;;
23434;SDS011;11890;45.380;11.028;2024-03-23T10:59:38;34.78;;;23.25;;
23434;SDS011;11890;45.380;11.028;2024-03-23T11:02:05;38.22;;;23.38;;
23434;SDS011;11890;45.380;11.028;2024-03-23T11:04:36;35.88;;;22.42;;
23434;SDS011;11890;45.380;11.028;2024-03-23T11:09:53;36.15;;;23.13;;
23434;SDS011;11890;45.380;11.028;2024-03-23T11:14:50;31.77;;;21.08;;
23434;SDS011;11890;45.380;11.028;2024-03-23T11:17:21;31.58;;;21.30;;
23434;SDS011;11890;45.380;11.028;2024-03-23T11:25:25;35.47;;;21.50;;
23434;SDS011;11890;45.380;11.028;2024-03-23T11:27:53;29.27;;;20.77;;
23434;SDS011;11890;45.380;11.028;2024-03-23T11:30:26;33.13;;;19.92;;
23434;SDS011;11890;45.380;11.028;2024-03-23T11:32:55;28.52;;;19.45;;
23434;SDS011;11890;45.380;11.028;2024-03-23T11:40:21;29.27;;;20.95;;
23434;SDS011;11890;45.380;11.028;2024-03-23T11:42:54;27.00;;;19.13;;
23434;SDS011;11890;45.380;11.028;2024-03-23T11:45:21;31.25;;;19.25;;
23434;SDS011;11890;45.380;11.028;2024-03-23T11:47:48;25.95;;;19.02;;
23434;SDS011;11890;45.380;11.028;2024-03-23T11:50:21;27.45;;;20.15;;
23434;SDS011;11890;45.380;11.028;2024-03-23T11:52:48;34.35;;;21.33;;
23434;SDS011;11890;45.380;11.028;2024-03-23T11:55:15;29.33;;;20.33;;
23434;SDS011;11890;45.380;11.028;2024-03-23T11:57:43;36.63;;;28.77;;
23434;SDS011;11890;45.380;11.028;2024-03-23T12:00:21;34.95;;;27.75;;
23434;SDS011;11890;45.380;11.028;2024-03-23T12:02:49;29.08;;;21.13;;
23434;SDS011;11890;45.380;11.028;2024-03-23T12:05:18;30.50;;;21.70;;
23434;SDS011;11890;45.380;11.028;2024-03-23T12:11:26;28.70;;;19.60;;
23434;SDS011;11890;45.380;11.028;2024-03-23T12:13:53;28.23;;;20.50;;
23434;SDS011;11890;45.380;11.028;2024-03-23T12:16:26;30.45;;;20.20;;
23434;SDS011;11890;45.380;11.028;2024-03-23T12:18:53;28.67;;;19.17;;
23434;SDS011;11890;45.380;11.028;2024-03-23T12:21:31;27.38;;;18.38;;
23434;SDS011;11890;45.380;11.028;2024-03-23T12:23:57;24.35;;;16.67;;
23434;SDS011;11890;45.380;11.028;2024-03-23T12:26:24;23.73;;;17.10;;
23434;SDS011;11890;45.380;11.028;2024-03-23T12:28:51;23.73;;;14.15;;
23434;SDS011;11890;45.380;11.028;2024-03-23T12:31:18;26.23;;;17.50;;
23434;SDS011;11890;45.380;11.028;2024-03-23T12:33:44;21.75;;;14.15;;
23434;SDS011;11890;45.380;11.028;2024-03-23T12:36:11;24.73;;;14.27;;
23434;SDS011;11890;45.380;11.028;2024-03-23T12:38:38;25.20;;;15.23;;
23434;SDS011;11890;45.380;11.028;2024-03-23T12:41:05;23.67;;;15.20;;
23434;SDS011;11890;45.380;11.028;2024-03-23T12:43:32;26.55;;;16.52;;
23434;SDS011;11890;45.380;11.028;2024-03-23T12:45:58;25.17;;;16.55;;
23434;SDS011;11890;45.380;11.028;2024-03-23T12:48:25;28.90;;;16.60;;
23434;SDS011;11890;45.380;11.028;2024-03-23T12:50:55;30.77;;;17.75;;
23434;SDS011;11890;45.380;11.028;2024-03-23T12:53:22;27.70;;;16.88;;
23434;SDS011;11890;45.380;11.028;2024-03-23T12:55:49;23.48;;;16.35;;
23434;SDS011;11890;45.380;11.028;2024-03-23T12:58:15;22.48;;;14.60;;
23434;SDS011;11890;45.380;11.028;2024-03-23T13:00:42;21.98;;;13.07;;
23434;SDS011;11890;45.380;11.028;2024-03-23T13:03:13;22.75;;;14.27;;
23434;SDS011;11890;45.380;11.028;2024-03-23T13:05:41;22.42;;;14.60;;
23434;SDS011;11890;45.380;11.028;2024-03-23T13:08:08;17.55;;;12.82;;
23434;SDS011;11890;45.380;11.028;2024-03-23T13:10:34;22.60;;;13.30;;
23434;SDS011;11890;45.380;11.028;2024-03-23T13:13:01;20.15;;;12.98;;
23434;SDS011;11890;45.380;11.028;2024-03-23T13:15:28;21.85;;;13.48;;
23434;SDS011;11890;45.380;11.028;2024-03-23T13:17:55;21.65;;;14.15;;
23434;SDS011;11890;45.380;11.028;2024-03-23T13:20:21;20.20;;;12.75;;
23434;SDS011;11890;45.380;11.028;2024-03-23T13:22:48;18.48;;;12.15;;
23434;SDS011;11890;45.380;11.028;2024-03-23T13:25:17;17.63;;;12.32;;
23434;SDS011;11890;45.380;11.028;2024-03-23T13:27:44;15.57;;;10.98;;
23434;SDS011;11890;45.380;11.028;2024-03-23T13:30:11;19.58;;;12.40;;
23434;SDS011;11890;45.380;11.028;2024-03-23T13:32:38;22.35;;;14.52;;
23434;SDS011;11890;45.380;11.028;2024-03-23T13:35:05;22.65;;;14.95;;
23434;SDS011;11890;45.380;11.028;2024-03-23T13:37:32;23.00;;;15.90;;
23434;SDS011;11890;45.380;11.028;2024-03-23T13:39:59;20.98;;;14.00;;
23434;SDS011;11890;45.380;11.028;2024-03-23T13:42:26;22.13;;;13.95;;
23434;SDS011;11890;45.380;11.028;2024-03-23T13:44:53;23.17;;;15.98;;
23434;SDS011;11890;45.380;11.028;2024-03-23T13:47:20;20.42;;;14.25;;
23434;SDS011;11890;45.380;11.028;2024-03-23T13:49:46;21.95;;;14.15;;
23434;SDS011;11890;45.380;11.028;2024-03-23T13:52:14;22.60;;;14.45;;
23434;SDS011;11890;45.380;11.028;2024-03-23T13:54:41;24.13;;;14.77;;
23434;SDS011;11890;45.380;11.028;2024-03-23T13:57:11;23.48;;;14.68;;
23434;SDS011;11890;45.380;11.028;2024-03-23T13:59:38;25.08;;;16.67;;
23434;SDS011;11890;45.380;11.028;2024-03-23T14:02:05;23.08;;;15.85;;
23434;SDS011;11890;45.380;11.028;2024-03-23T14:04:32;29.42;;;16.10;;
23434;SDS011;11890;45.380;11.028;2024-03-23T14:06:58;23.20;;;15.43;;
23434;SDS011;11890;45.380;11.028;2024-03-23T14:09:25;26.70;;;16.55;;
23434;SDS011;11890;45.380;11.028;2024-03-23T14:11:52;24.08;;;16.08;;
23434;SDS011;11890;45.380;11.028;2024-03-23T14:14:19;24.15;;;16.17;;
23434;SDS011;11890;45.380;11.028;2024-03-23T14:16:48;26.70;;;16.60;;
23434;SDS011;11890;45.380;11.028;2024-03-23T14:19:15;24.90;;;16.17;;
23434;SDS011;11890;45.380;11.028;2024-03-23T14:21:41;26.30;;;17.45;;
23434;SDS011;11890;45.380;11.028;2024-03-23T14:24:08;23.92;;;15.35;;
23434;SDS011;11890;45.380;11.028;2024-03-23T14:26:35;26.55;;;17.55;;
23434;SDS011;11890;45.380;11.028;2024-03-23T14:29:02;29.15;;;17.38;;
23434;SDS011;11890;45.380;11.028;2024-03-23T14:31:29;27.52;;;17.90;;
23434;SDS011;11890;45.380;11.028;2024-03-23T14:33:56;25.20;;;17.02;;
23434;SDS011;11890;45.380;11.028;2024-03-23T14:36:23;26.15;;;16.58;;
23434;SDS011;11890;45.380;11.028;2024-03-23T14:38:50;26.42;;;15.43;;
23434;SDS011;11890;45.380;11.028;2024-03-23T14:41:18;26.02;;;17.48;;
23434;SDS011;11890;45.380;11.028;2024-03-23T14:43:45;23.98;;;16.92;;
23434;SDS011;11890;45.380;11.028;2024-03-23T14:46:14;26.73;;;16.15;;
23434;SDS011;11890;45.380;11.028;2024-03-23T14:48:42;28.45;;;16.50;;
23434;SDS011;11890;45.380;11.028;2024-03-23T14:51:10;28.30;;;17.45;;
23434;SDS011;11890;45.380;11.028;2024-03-23T14:53:38;26.27;;;16.85;;
23434;SDS011;11890;45.380;11.028;2024-03-23T14:56:06;28.60;;;15.93;;
23434;SDS011;11890;45.380;11.028;2024-03-23T14:58:33;29.23;;;17.13;;
23434;SDS011;11890;45.380;11.028;2024-03-23T15:01:06;24.80;;;16.58;;
23434;SDS011;11890;45.380;11.028;2024-03-23T15:03:36;25.85;;;17.38;;
23434;SDS011;11890;45.380;11.028;2024-03-23T15:06:05;28.67;;;17.90;;
23434;SDS011;11890;45.380;11.028;2024-03-23T15:08:32;27.25;;;17.45;;
23434;SDS011;11890;45.380;11.028;2024-03-23T15:11:02;26.35;;;16.98;;
23434;SDS011;11890;45.380;11.028;2024-03-23T15:13:33;27.95;;;16.98;;
23434;SDS011;11890;45.380;11.028;2024-03-23T15:16:00;28.17;;;16.92;;
23434;SDS011;11890;45.380;11.028;2024-03-23T15:18:29;31.08;;;17.55;;
23434;SDS011;11890;45.380;11.028;2024-03-23T15:20:59;28.48;;;17.05;;
23434;SDS011;11890;45.380;11.028;2024-03-23T15:23:33;26.58;;;16.05;;